Time;durP1;ratioP1;P1;durP2;ratioP2;P2;SDS_P1;SDS_P2;PMS_P1;PMS_P2;Temp;Humidity;BMP_temperature;BMP_pressure;BME280_temperature;BME280_humidity;BME280_pressure;Samples;Min_cycle;Max_cycle;Signal;HPM_P1;HPM_P2
2022/07/15 00:00:17;;;;;;;5.78;1.30;;;12.70;99.90;;;;;;5016991;28;20033;-69
2022/07/15 00:02:43;;;;;;;22.02;2.40;;;12.80;99.90;;;;;;5017004;28;20026;-69
2022/07/15 00:05:09;;;;;;;7.57;1.48;;;12.80;99.90;;;;;;5016804;28;20049;-69
2022/07/15 00:07:35;;;;;;;12.32;1.73;;;12.80;99.90;;;;;;5016696;28;20034;-69
2022/07/15 00:10:20;;;;;;;19.38;1.77;;;12.70;99.90;;;;;;5016884;28;20025;-68
2022/07/15 00:12:55;;;;;;;8.23;1.38;;;12.80;99.90;;;;;;5016840;28;20021;-68
2022/07/15 00:15:24;;;;;;;10.63;1.77;;;12.90;99.90;;;;;;5016982;28;20102;-69
2022/07/15 00:17:50;;;;;;;12.10;1.45;;;12.90;99.90;;;;;;5016656;28;20033;-69
2022/07/15 00:20:17;;;;;;;10.00;1.80;;;12.90;99.90;;;;;;5016635;28;20034;-69
2022/07/15 00:22:44;;;;;;;14.50;2.28;;;12.90;99.90;;;;;;5016529;28;20386;-68
2022/07/15 00:25:11;;;;;;;6.40;1.40;;;12.90;99.90;;;;;;5016473;28;20025;-68
2022/07/15 00:27:53;;;;;;;8.60;1.65;;;12.90;99.90;;;;;;5016770;28;20069;-70
2022/07/15 00:30:20;;;;;;;8.40;1.38;;;12.70;99.90;;;;;;5016849;28;20087;-70
2022/07/15 00:32:46;;;;;;;9.38;1.70;;;12.70;99.90;;;;;;5016503;28;20057;-70
2022/07/15 00:35:12;;;;;;;12.98;1.90;;;12.60;99.90;;;;;;5016971;28;20037;-70
2022/07/15 00:37:37;;;;;;;7.00;1.67;;;12.60;99.90;;;;;;5016306;28;20021;-70
2022/07/15 00:40:03;;;;;;;8.00;1.25;;;12.60;99.90;;;;;;5016461;28;20363;-70
2022/07/15 00:42:44;;;;;;;11.63;1.83;;;12.50;99.90;;;;;;5016304;28;20127;-70
2022/07/15 00:45:14;;;;;;;8.32;1.23;;;12.50;99.90;;;;;;5016070;28;20026;-70
2022/07/15 00:47:48;;;;;;;8.05;1.63;;;12.50;99.90;;;;;;5016230;28;20415;-70
2022/07/15 00:50:15;;;;;;;14.45;2.05;;;12.50;99.90;;;;;;5016208;28;20497;-70
2022/07/15 00:52:44;;;;;;;10.23;1.58;;;12.50;99.90;;;;;;5016110;28;20022;-70
2022/07/15 00:55:12;;;;;;;11.95;2.45;;;12.50;99.90;;;;;;5016162;28;20113;-70
2022/07/15 00:57:41;;;;;;;11.20;1.52;;;12.50;99.90;;;;;;5015890;28;20026;-70
2022/07/15 01:00:11;;;;;;;20.08;1.90;;;12.40;99.90;;;;;;5016332;28;20523;-70
2022/07/15 01:02:39;;;;;;;17.98;1.85;;;12.40;99.90;;;;;;5015959;28;20041;-70
2022/07/15 01:05:06;;;;;;;18.58;2.30;;;12.40;99.90;;;;;;5016310;28;20113;-70
2022/07/15 01:07:34;;;;;;;15.07;1.83;;;12.30;99.90;;;;;;5083850;23;20044;-70
2022/07/15 01:10:00;;;;;;;22.30;2.08;;;12.20;99.90;;;;;;5055713;28;20075;-70
2022/07/15 01:12:27;;;;;;;13.80;1.80;;;12.10;99.90;;;;;;5055716;28;20258;-70
2022/07/15 01:14:52;;;;;;;18.20;3.13;;;12.00;99.90;;;;;;5055701;28;20056;-70
2022/07/15 01:17:18;;;;;;;34.53;3.38;;;12.00;99.90;;;;;;5056046;28;20052;-70
2022/07/15 01:19:44;;;;;;;7.80;1.80;;;11.90;99.90;;;;;;5055667;28;20539;-70
2022/07/15 01:22:09;;;;;;;11.52;2.88;;;11.90;99.90;;;;;;5055673;28;20033;-70
2022/07/15 01:24:35;;;;;;;10.55;2.10;;;11.80;99.90;;;;;;5055352;28;20037;-70
2022/07/15 01:27:01;;;;;;;17.55;2.33;;;11.80;99.90;;;;;;5055662;28;20063;-70
2022/07/15 01:29:28;;;;;;;13.85;1.83;;;11.80;99.90;;;;;;5055368;28;20080;-70
2022/07/15 01:31:53;;;;;;;7.70;1.52;;;11.70;99.90;;;;;;5055646;28;20059;-70
2022/07/15 01:34:19;;;;;;;7.78;1.70;;;11.70;99.90;;;;;;5055476;28;20121;-70
2022/07/15 01:36:45;;;;;;;14.15;2.13;;;11.70;99.90;;;;;;5055483;28;20125;-70
2022/07/15 01:39:11;;;;;;;5.78;1.13;;;11.80;99.90;;;;;;5055142;28;20025;-70
2022/07/15 01:41:37;;;;;;;6.63;1.67;;;11.80;99.90;;;;;;5055051;28;20119;-70
2022/07/15 01:44:03;;;;;;;9.75;1.75;;;11.80;99.90;;;;;;5054948;28;20036;-70
2022/07/15 01:46:28;;;;;;;10.23;1.52;;;11.80;99.90;;;;;;5055035;28;20440;-70
2022/07/15 01:51:38;;;;;;;8.95;1.48;;;11.90;99.90;;;;;;5055012;28;20491;-70
2022/07/15 01:54:04;;;;;;;13.70;1.90;;;11.90;99.90;;;;;;5055059;28;20034;-71
2022/07/15 01:56:29;;;;;;;8.63;1.35;;;11.90;99.90;;;;;;5054025;28;20578;-71
2022/07/15 01:58:55;;;;;;;10.98;1.25;;;12.10;99.90;;;;;;5055106;28;20112;-70
2022/07/15 02:01:20;;;;;;;11.45;1.95;;;12.10;99.90;;;;;;5037011;28;20033;-70
2022/07/15 02:03:46;;;;;;;5.20;1.15;;;12.20;99.90;;;;;;5054714;28;20025;-70
2022/07/15 02:06:11;;;;;;;7.95;2.15;;;12.30;99.90;;;;;;5054725;28;20477;-70
2022/07/15 02:08:37;;;;;;;11.20;1.90;;;12.40;99.90;;;;;;5054794;28;20048;-70
2022/07/15 02:11:03;;;;;;;10.10;1.40;;;12.50;99.90;;;;;;5054681;28;20080;-70
2022/07/15 02:13:28;;;;;;;9.57;1.40;;;12.70;99.90;;;;;;5054985;28;20029;-71
2022/07/15 02:15:54;;;;;;;5.55;1.38;;;12.80;99.90;;;;;;5054690;28;20022;-70
2022/07/15 02:18:20;;;;;;;6.97;1.42;;;12.90;99.90;;;;;;5054882;28;20048;-70
2022/07/15 02:20:46;;;;;;;16.23;2.45;;;13.00;99.90;;;;;;5054281;28;20036;-70
2022/07/15 02:23:12;;;;;;;11.52;1.27;;;13.00;99.90;;;;;;5054355;28;20025;-70
2022/07/15 02:25:37;;;;;;;15.68;2.38;;;13.00;99.90;;;;;;5054388;28;20473;-70
2022/07/15 02:28:05;;;;;;;9.32;2.13;;;13.00;99.90;;;;;;5054179;28;20047;-70
2022/07/15 02:30:34;;;;;;;15.38;2.70;;;13.00;99.90;;;;;;5054929;28;20032;-70
2022/07/15 02:33:00;;;;;;;7.47;1.63;;;12.90;99.90;;;;;;5054510;28;20028;-71
2022/07/15 02:35:26;;;;;;;12.52;1.83;;;12.90;99.90;;;;;;5054446;28;20055;-70
2022/07/15 02:37:52;;;;;;;9.85;1.83;;;12.90;99.90;;;;;;5054377;28;20035;-70
2022/07/15 02:40:18;;;;;;;8.82;1.77;;;12.90;99.90;;;;;;5054243;28;20048;-70
2022/07/15 02:42:52;;;;;;;9.10;1.77;;;12.80;99.90;;;;;;5054207;28;20028;-70
2022/07/15 02:45:19;;;;;;;23.70;3.13;;;12.80;99.90;;;;;;5054338;28;20108;-70
2022/07/15 02:47:45;;;;;;;13.23;2.10;;;12.60;99.90;;;;;;5053939;28;20025;-70
2022/07/15 02:50:11;;;;;;;11.65;1.85;;;12.50;99.90;;;;;;5053948;28;20044;-70
2022/07/15 02:52:36;;;;;;;20.50;2.20;;;12.40;99.90;;;;;;5053656;28;20481;-70
2022/07/15 02:55:03;;;;;;;11.10;3.10;;;12.40;99.90;;;;;;5053874;28;20065;-70
2022/07/15 02:57:28;;;;;;;11.98;2.17;;;12.30;99.90;;;;;;5053724;28;20017;-70
2022/07/15 02:59:54;;;;;;;22.52;2.50;;;12.30;99.90;;;;;;5053871;28;20070;-70
2022/07/15 03:02:19;;;;;;;12.50;2.00;;;12.30;99.90;;;;;;5053723;28;20044;-70
2022/07/15 03:04:45;;;;;;;11.88;2.00;;;12.30;99.90;;;;;;5053860;28;20025;-70
2022/07/15 03:07:11;;;;;;;11.02;1.70;;;12.40;99.90;;;;;;5053299;28;20052;-70
2022/07/15 03:09:37;;;;;;;12.60;2.08;;;12.40;99.90;;;;;;5053767;28;20482;-70
2022/07/15 03:12:03;;;;;;;11.80;2.20;;;12.40;99.90;;;;;;5053687;28;20024;-70
2022/07/15 03:14:28;;;;;;;11.75;1.83;;;12.40;99.90;;;;;;5053644;28;20409;-70
2022/07/15 03:16:54;;;;;;;22.23;3.80;;;12.40;99.90;;;;;;5053504;28;20021;-70
2022/07/15 03:19:20;;;;;;;24.98;3.90;;;12.40;99.90;;;;;;5053801;28;20071;-70
2022/07/15 03:21:48;;;;;;;14.85;2.10;;;12.40;99.90;;;;;;5053855;28;20021;-70
2022/07/15 03:24:14;;;;;;;14.80;2.40;;;12.40;99.90;;;;;;5053464;28;20028;-70
2022/07/15 03:26:39;;;;;;;7.95;1.40;;;12.40;99.90;;;;;;5053489;28;20021;-70
2022/07/15 03:29:05;;;;;;;14.38;1.63;;;12.40;99.90;;;;;;5053460;28;20365;-70
2022/07/15 03:31:31;;;;;;;7.47;2.08;;;12.30;99.90;;;;;;5053352;28;20025;-70
2022/07/15 03:33:57;;;;;;;9.77;2.17;;;12.30;99.90;;;;;;5053258;28;20044;-70
2022/07/15 03:36:23;;;;;;;15.57;1.83;;;12.20;99.90;;;;;;5053474;28;20029;-70
2022/07/15 03:38:51;;;;;;;16.42;2.13;;;12.20;99.90;;;;;;5053651;28;20060;-70
2022/07/15 03:41:17;;;;;;;11.70;2.53;;;12.20;99.90;;;;;;5053258;28;20078;-70
2022/07/15 03:43:43;;;;;;;14.60;1.83;;;12.20;99.90;;;;;;5053318;28;20025;-70
2022/07/15 03:46:08;;;;;;;9.93;1.48;;;12.20;99.90;;;;;;5053397;28;20373;-70
2022/07/15 03:48:34;;;;;;;15.13;1.50;;;12.30;99.90;;;;;;5053409;28;20032;-70
2022/07/15 03:50:59;;;;;;;7.30;1.33;;;12.10;99.90;;;;;;5053274;28;20021;-70
2022/07/15 03:53:25;;;;;;;7.03;2.00;;;12.00;99.90;;;;;;5053120;28;20473;-70
2022/07/15 03:55:51;;;;;;;9.25;1.48;;;11.90;99.90;;;;;;5053771;28;20029;-69
2022/07/15 03:58:17;;;;;;;18.65;1.70;;;11.90;99.90;;;;;;5053135;28;20047;-70
2022/07/15 04:00:42;;;;;;;10.88;2.10;;;11.80;99.90;;;;;;5053386;28;20028;-70
2022/07/15 04:03:08;;;;;;;8.35;2.13;;;11.80;99.90;;;;;;5053067;28;20083;-71
2022/07/15 04:05:34;;;;;;;11.93;1.83;;;11.70;99.90;;;;;;5035062;28;20066;-71
2022/07/15 04:08:00;;;;;;;9.75;1.75;;;11.70;99.90;;;;;;5052965;28;20029;-71
2022/07/15 04:10:25;;;;;;;7.75;1.38;;;11.60;99.90;;;;;;5053080;28;20032;-70
2022/07/15 04:12:51;;;;;;;7.15;1.10;;;11.60;99.90;;;;;;5053102;28;20029;-70
2022/07/15 04:15:16;;;;;;;8.57;1.23;;;11.70;99.90;;;;;;5052891;28;20067;-70
2022/07/15 04:17:42;;;;;;;10.35;1.40;;;11.80;99.90;;;;;;5053114;28;20366;-70
2022/07/15 04:20:09;;;;;;;8.10;1.38;;;11.90;99.90;;;;;;5053903;28;20032;-70
2022/07/15 04:22:42;;;;;;;7.05;1.25;;;12.00;99.90;;;;;;5056657;28;20025;-71
2022/07/15 04:25:13;;;;;;;7.47;1.48;;;12.10;99.90;;;;;;5056488;28;20106;-71
2022/07/15 04:27:39;;;;;;;10.60;2.05;;;12.20;99.90;;;;;;5056604;28;20017;-70
2022/07/15 04:30:06;;;;;;;24.63;3.03;;;12.30;99.90;;;;;;5056483;28;20384;-70
2022/07/15 04:32:32;;;;;;;9.55;1.45;;;12.40;99.90;;;;;;5056299;28;20033;-70
2022/07/15 04:34:57;;;;;;;6.70;1.20;;;12.40;99.90;;;;;;5056406;28;20103;-70
2022/07/15 04:37:23;;;;;;;13.90;1.70;;;12.50;99.90;;;;;;5056591;28;20048;-70
2022/07/15 04:39:48;;;;;;;11.52;1.85;;;12.50;99.90;;;;;;5056381;28;20064;-70
2022/07/15 04:42:14;;;;;;;7.65;2.75;;;12.50;99.90;;;;;;5056243;28;20025;-70
2022/07/15 04:44:40;;;;;;;11.93;1.40;;;12.70;99.90;;;;;;5056112;28;20416;-70
2022/07/15 04:47:06;;;;;;;6.10;0.98;;;12.70;99.90;;;;;;5056277;28;20052;-70
2022/07/15 04:52:16;;;;;;;9.98;1.50;;;12.70;99.90;;;;;;5056202;28;20071;-70
2022/07/15 04:54:42;;;;;;;12.50;1.05;;;12.90;99.90;;;;;;5038253;28;20534;-70
2022/07/15 04:57:08;;;;;;;7.38;1.15;;;13.00;99.90;;;;;;5055821;28;20033;-70
2022/07/15 04:59:34;;;;;;;6.05;2.08;;;13.10;99.90;;;;;;5056212;28;20029;-70
2022/07/15 05:01:59;;;;;;;8.15;1.10;;;13.20;99.90;;;;;;5056110;28;20036;-71
2022/07/15 05:04:26;;;;;;;8.50;1.60;;;13.20;99.90;;;;;;5055939;28;20116;-71
2022/07/15 05:06:51;;;;;;;6.30;1.05;;;13.30;99.90;;;;;;5055646;28;20025;-70
2022/07/15 05:09:17;;;;;;;5.18;1.20;;;13.40;99.90;;;;;;5055771;28;20036;-71
2022/07/15 05:11:43;;;;;;;8.85;1.35;;;13.50;99.90;;;;;;5055858;28;20033;-71
2022/07/15 05:14:08;;;;;;;8.13;1.10;;;13.50;99.90;;;;;;5055749;28;20127;-70
2022/07/15 05:16:34;;;;;;;10.73;1.50;;;13.60;99.90;;;;;;5055618;28;20054;-70
2022/07/15 05:18:59;;;;;;;8.18;1.50;;;13.70;99.90;;;;;;5055492;28;20021;-70
2022/07/15 05:21:25;;;;;;;9.68;1.65;;;13.70;99.90;;;;;;5055614;28;20388;-70
2022/07/15 05:23:51;;;;;;;11.20;2.25;;;13.70;99.90;;;;;;5055600;28;20025;-70
2022/07/15 05:26:18;;;;;;;11.88;1.38;;;13.80;99.90;;;;;;5037621;28;20029;-70
2022/07/15 05:28:44;;;;;;;5.18;1.15;;;13.80;99.90;;;;;;5055592;28;20484;-71
2022/07/15 05:31:10;;;;;;;11.77;1.30;;;13.90;99.90;;;;;;5054575;28;20032;-70
2022/07/15 05:33:35;;;;;;;4.40;1.25;;;13.90;99.90;;;;;;5055009;28;20087;-70
2022/07/15 05:36:01;;;;;;;12.60;1.70;;;13.90;99.90;;;;;;5055341;28;20025;-70
2022/07/15 05:38:26;;;;;;;6.85;1.27;;;14.00;99.90;;;;;;5055322;28;20452;-70
2022/07/15 05:40:53;;;;;;;16.65;3.65;;;14.10;99.90;;;;;;5055494;28;20024;-70
2022/07/15 05:43:19;;;;;;;13.95;2.25;;;14.10;99.90;;;;;;5055421;28;20021;-70
2022/07/15 05:45:45;;;;;;;14.60;1.48;;;14.10;99.90;;;;;;5055410;28;20158;-70
2022/07/15 05:48:10;;;;;;;13.05;1.98;;;14.10;99.90;;;;;;5055150;28;20036;-70
2022/07/15 05:50:36;;;;;;;12.80;1.80;;;14.20;99.90;;;;;;5054995;28;20020;-70
2022/07/15 05:53:02;;;;;;;16.63;1.80;;;14.20;99.90;;;;;;5055042;28;20104;-70
2022/07/15 05:55:27;;;;;;;9.60;1.73;;;14.20;99.90;;;;;;5055008;28;20024;-70
2022/07/15 05:57:53;;;;;;;9.43;1.35;;;14.30;99.90;;;;;;5054877;28;20105;-71
2022/07/15 06:00:19;;;;;;;16.30;1.90;;;14.50;99.90;;;;;;5054876;28;20033;-71
2022/07/15 06:02:45;;;;;;;12.02;1.92;;;14.60;99.90;;;;;;5055074;28;20032;-70
2022/07/15 06:05:10;;;;;;;11.60;1.42;;;14.70;99.90;;;;;;5054691;28;20033;-70
2022/07/15 06:07:36;;;;;;;10.88;1.48;;;14.70;99.90;;;;;;5054590;28;20041;-70
2022/07/15 06:10:03;;;;;;;9.63;1.83;;;14.80;99.90;;;;;;5054711;28;20477;-70
2022/07/15 06:12:28;;;;;;;9.15;1.15;;;14.90;99.90;;;;;;5054754;28;20021;-70
2022/07/15 06:14:54;;;;;;;13.80;1.70;;;14.80;99.90;;;;;;5054583;28;20094;-70
2022/07/15 06:17:19;;;;;;;8.82;1.35;;;14.80;99.90;;;;;;5054459;28;20405;-70
2022/07/15 06:19:45;;;;;;;10.48;1.38;;;14.90;99.90;;;;;;5055069;28;20473;-70
2022/07/15 06:22:10;;;;;;;8.10;1.45;;;14.90;99.90;;;;;;5054730;28;20025;-70
2022/07/15 06:24:36;;;;;;;14.45;1.83;;;15.00;99.90;;;;;;5054534;28;20039;-70
2022/07/15 06:27:02;;;;;;;5.88;1.35;;;15.00;99.90;;;;;;5054287;28;20477;-71
2022/07/15 06:29:27;;;;;;;8.40;1.48;;;15.00;99.90;;;;;;5054543;28;20385;-71
2022/07/15 06:31:53;;;;;;;6.63;1.63;;;15.00;99.90;;;;;;5054199;28;20028;-71
2022/07/15 06:34:18;;;;;;;4.38;1.17;;;15.10;99.90;;;;;;5054714;28;20103;-71
2022/07/15 06:36:44;;;;;;;10.65;1.40;;;15.20;99.90;;;;;;5053876;28;20025;-71
2022/07/15 06:39:11;;;;;;;7.13;1.70;;;15.20;99.90;;;;;;5054129;28;20027;-71
2022/07/15 06:41:36;;;;;;;12.15;2.30;;;15.20;99.90;;;;;;5054211;28;20029;-70
2022/07/15 06:44:04;;;;;;;8.90;1.38;;;15.30;99.90;;;;;;5053803;28;20024;-72
2022/07/15 06:46:29;;;;;;;6.22;1.23;;;15.40;99.90;;;;;;5053870;28;20013;-70
2022/07/15 06:48:56;;;;;;;13.55;1.20;;;15.30;99.90;;;;;;5053986;28;20469;-70
2022/07/15 06:51:22;;;;;;;3.67;1.00;;;15.30;99.90;;;;;;5053854;28;20017;-70
2022/07/15 06:53:47;;;;;;;6.68;1.42;;;15.20;99.90;;;;;;5053766;28;20052;-71
2022/07/15 06:56:13;;;;;;;14.38;1.67;;;15.30;99.90;;;;;;5053802;28;20048;-70
2022/07/15 06:58:39;;;;;;;16.95;1.98;;;15.20;99.90;;;;;;5053942;28;20470;-70
2022/07/15 07:01:05;;;;;;;7.32;1.45;;;15.20;99.90;;;;;;5053695;28;20032;-71
2022/07/15 07:03:30;;;;;;;8.07;1.40;;;15.20;99.90;;;;;;5053702;28;20038;-70
2022/07/15 07:05:57;;;;;;;6.80;1.30;;;15.20;99.90;;;;;;5053474;28;20380;-70
2022/07/15 07:08:22;;;;;;;9.75;1.23;;;15.20;99.90;;;;;;5054138;28;20013;-69
2022/07/15 07:10:48;;;;;;;7.68;1.30;;;15.30;99.90;;;;;;5053562;28;20029;-69
2022/07/15 07:13:13;;;;;;;5.03;1.52;;;15.40;99.90;;;;;;5053490;28;20032;-69
2022/07/15 07:15:39;;;;;;;8.77;1.10;;;15.50;99.90;;;;;;5053845;28;20021;-69
2022/07/15 07:18:04;;;;;;;9.73;1.58;;;15.40;99.90;;;;;;5053458;28;20104;-69
2022/07/15 07:20:30;;;;;;;7.93;1.25;;;15.50;99.90;;;;;;5053674;28;20384;-69
2022/07/15 07:22:57;;;;;;;10.05;1.83;;;15.50;99.90;;;;;;5053341;28;20033;-69
2022/07/15 07:25:23;;;;;;;14.15;1.38;;;15.60;99.90;;;;;;5053591;28;20029;-69
2022/07/15 07:27:48;;;;;;;13.85;2.75;;;15.70;99.90;;;;;;5053462;28;20373;-69
2022/07/15 07:30:14;;;;;;;17.55;1.30;;;16.00;99.90;;;;;;5053742;28;20537;-69
2022/07/15 07:32:39;;;;;;;9.20;1.48;;;16.10;99.90;;;;;;5053473;28;20028;-69
2022/07/15 07:35:06;;;;;;;11.07;1.33;;;16.20;99.90;;;;;;5053459;28;20048;-69
2022/07/15 07:37:36;;;;;;;8.73;1.42;;;16.00;99.90;;;;;;5053199;28;20029;-69
2022/07/15 07:40:02;;;;;;;4.53;1.38;;;16.10;99.90;;;;;;5053510;28;20095;-68
2022/07/15 07:42:28;;;;;;;10.65;1.75;;;16.20;99.90;;;;;;5053671;28;20051;-69
2022/07/15 07:44:53;;;;;;;7.32;1.23;;;16.40;99.90;;;;;;5053243;28;20481;-68
2022/07/15 07:47:21;;;;;;;6.75;1.13;;;16.50;99.90;;;;;;5035229;28;20476;-69
2022/07/15 07:49:47;;;;;;;18.90;1.65;;;16.70;99.90;;;;;;5053009;28;20018;-69
2022/07/15 07:52:15;;;;;;;7.82;1.30;;;16.70;99.90;;;;;;5053201;28;20056;-69
2022/07/15 07:54:41;;;;;;;11.48;1.67;;;16.40;99.90;;;;;;5053435;28;20028;-69
2022/07/15 07:57:07;;;;;;;10.32;2.25;;;16.30;99.90;;;;;;5057244;28;20028;-68
2022/07/15 07:59:32;;;;;;;10.55;1.58;;;16.30;99.90;;;;;;5057545;28;20033;-68
2022/07/15 08:01:58;;;;;;;6.95;1.10;;;16.30;99.90;;;;;;5057070;28;20025;-69
2022/07/15 08:04:24;;;;;;;5.20;0.95;;;16.20;99.90;;;;;;5056950;28;20029;-69
2022/07/15 08:06:50;;;;;;;3.95;0.88;;;16.20;99.90;;;;;;5057185;28;20076;-69
2022/07/15 08:09:16;;;;;;;5.10;0.70;;;16.30;99.90;;;;;;5056832;28;20025;-69
2022/07/15 08:11:42;;;;;;;10.38;1.73;;;16.40;99.90;;;;;;5057015;28;20017;-69
2022/07/15 08:14:08;;;;;;;6.95;1.00;;;16.50;99.90;;;;;;5038936;28;20036;-69
2022/07/15 08:16:34;;;;;;;2.40;0.95;;;16.60;99.90;;;;;;5056964;28;20033;-69
2022/07/15 08:19:00;;;;;;;4.55;1.20;;;16.90;99.90;;;;;;5057151;28;20029;-69
2022/07/15 08:21:25;;;;;;;7.50;0.77;;;17.20;99.90;;;;;;5056852;28;20056;-69
2022/07/15 08:23:51;;;;;;;4.35;0.77;;;17.40;99.90;;;;;;5056596;28;20033;-69
2022/07/15 08:26:23;;;;;;;4.47;1.65;;;17.30;99.90;;;;;;5056505;28;20028;-69
2022/07/15 08:28:49;;;;;;;5.18;1.08;;;17.00;99.90;;;;;;5039082;28;20422;-69
2022/07/15 08:31:16;;;;;;;3.35;0.40;;;17.00;99.90;;;;;;5056614;28;20023;-69
2022/07/15 08:33:42;;;;;;;3.95;0.60;;;17.00;99.90;;;;;;5056462;28;20384;-69
2022/07/15 08:36:07;;;;;;;4.03;0.52;;;17.10;99.90;;;;;;5056473;28;20048;-69
2022/07/15 08:38:33;;;;;;;0.68;0.30;;;17.20;99.90;;;;;;5038507;28;20095;-69
2022/07/15 08:40:58;;;;;;;3.58;0.60;;;17.10;99.90;;;;;;5056648;28;20032;-69
2022/07/15 08:43:24;;;;;;;2.33;0.60;;;16.80;99.90;;;;;;5056509;28;20056;-68
2022/07/15 08:45:51;;;;;;;3.08;0.50;;;16.40;99.90;;;;;;5056661;28;20536;-69
2022/07/15 08:48:17;;;;;;;2.25;0.68;;;16.00;99.90;;;;;;5056364;28;20024;-69
2022/07/15 08:50:43;;;;;;;5.93;0.82;;;15.70;99.90;;;;;;5056322;28;20025;-69
2022/07/15 08:53:09;;;;;;;8.43;0.82;;;15.60;99.90;;;;;;5056136;28;20028;-69
2022/07/15 08:55:34;;;;;;;5.15;1.10;;;15.40;99.90;;;;;;5056142;28;20029;-69
2022/07/15 08:58:00;;;;;;;10.25;1.38;;;15.30;99.90;;;;;;5056038;28;20029;-69
2022/07/15 09:00:29;;;;;;;11.52;2.25;;;15.50;99.90;;;;;;5056350;28;20032;-69
2022/07/15 09:03:05;;;;;;;5.75;1.15;;;15.60;99.90;;;;;;5055854;28;20021;-69
2022/07/15 09:05:35;;;;;;;6.40;1.20;;;16.00;99.90;;;;;;5055731;28;20025;-69
2022/07/15 09:08:15;;;;;;;7.50;1.50;;;16.40;99.90;;;;;;5055801;28;20037;-69
2022/07/15 09:10:51;;;;;;;8.45;1.63;;;16.80;99.90;;;;;;5056410;28;20021;-69
2022/07/15 09:13:27;;;;;;;8.88;0.90;;;17.00;99.90;;;;;;5056099;28;20025;-69
2022/07/15 09:15:54;;;;;;;5.22;0.80;;;17.30;99.90;;;;;;5055636;28;20466;-69
2022/07/15 09:18:22;;;;;;;6.95;1.17;;;17.40;99.90;;;;;;5055739;28;20469;-69
2022/07/15 09:20:49;;;;;;;2.58;0.90;;;17.60;99.90;;;;;;5055591;28;20120;-69
2022/07/15 09:23:20;;;;;;;0.93;0.43;;;17.60;99.90;;;;;;5055522;28;20048;-69
2022/07/15 09:25:47;;;;;;;1.73;0.80;;;17.40;99.90;;;;;;5055950;28;20021;-69
2022/07/15 09:28:13;;;;;;;4.35;0.82;;;17.10;99.90;;;;;;5055457;28;20110;-69
2022/07/15 09:33:47;;;;;;;3.83;0.45;;;16.90;99.90;;;;;;5055409;28;20032;-69
2022/07/15 09:36:22;;;;;;;2.22;0.70;;;16.90;99.90;;;;;;5055124;28;20023;-70
2022/07/15 09:38:55;;;;;;;1.80;0.77;;;17.00;99.90;;;;;;5055326;28;20032;-70
2022/07/15 09:41:38;;;;;;;6.63;0.80;;;16.70;99.90;;;;;;5055121;28;20017;-70
2022/07/15 09:44:13;;;;;;;2.97;1.02;;;16.40;99.90;;;;;;5055120;28;20033;-70
2022/07/15 09:46:54;;;;;;;10.52;1.13;;;16.20;99.90;;;;;;5054968;28;20052;-70
2022/07/15 09:49:22;;;;;;;8.80;1.02;;;16.20;99.90;;;;;;5054451;28;20096;-70
2022/07/15 09:52:11;;;;;;;3.45;1.05;;;16.30;99.90;;;;;;5054894;28;20428;-70
2022/07/15 09:54:45;;;;;;;8.23;1.10;;;16.50;99.90;;;;;;5054950;28;20025;-70
2022/07/15 09:57:21;;;;;;;1.70;0.60;;;16.50;99.90;;;;;;5055020;28;20029;-70
2022/07/15 09:59:49;;;;;;;4.25;0.65;;;16.60;99.90;;;;;;5055069;28;20021;-70
2022/07/15 10:02:15;;;;;;;5.57;0.90;;;16.60;99.90;;;;;;5054681;28;20029;-70
2022/07/15 10:04:42;;;;;;;1.95;0.50;;;17.20;99.90;;;;;;5054570;28;20025;-70
2022/07/15 10:07:11;;;;;;;1.40;0.57;;;17.90;99.90;;;;;;5054560;28;20025;-70
2022/07/15 10:09:36;;;;;;;1.90;0.82;;;17.70;99.90;;;;;;5054443;28;20025;-70
2022/07/15 10:12:14;;;;;;;4.82;0.98;;;17.50;99.90;;;;;;5054478;28;20017;-70
2022/07/15 10:14:58;;;;;;;1.55;0.60;;;17.30;99.90;;;;;;5054698;28;20021;-70
2022/07/15 10:17:54;;;;;;;2.42;0.85;;;17.40;99.90;;;;;;5054083;28;20030;-70
2022/07/15 10:20:36;;;;;;;3.22;0.80;;;17.60;99.90;;;;;;5054383;28;20032;-70
2022/07/15 10:23:14;;;;;;;4.60;1.23;;;17.70;99.90;;;;;;5054432;28;20021;-70
2022/07/15 10:26:12;;;;;;;9.52;0.82;;;17.80;99.90;;;;;;5054360;28;20468;-70
2022/07/15 10:28:55;;;;;;;4.30;0.90;;;18.00;99.90;;;;;;5054308;28;20435;-70
2022/07/15 10:31:25;;;;;;;8.77;0.68;;;18.20;99.90;;;;;;5054280;28;20025;-70
2022/07/15 10:34:03;;;;;;;7.88;0.80;;;18.20;99.90;;;;;;5054376;28;20025;-69
2022/07/15 10:36:46;;;;;;;3.17;1.48;;;18.20;99.90;;;;;;5036191;28;20029;-70
2022/07/15 10:39:16;;;;;;;3.97;1.23;;;18.30;99.90;;;;;;5053965;28;20025;-70
2022/07/15 10:42:02;;;;;;;5.22;0.80;;;18.40;99.90;;;;;;5054022;28;20033;-70
2022/07/15 10:44:29;;;;;;;6.97;1.35;;;18.60;99.90;;;;;;5053803;28;20020;-70
2022/07/15 10:47:13;;;;;;;5.78;1.00;;;18.40;99.90;;;;;;5053958;28;20469;-69
2022/07/15 10:49:50;;;;;;;8.45;1.30;;;18.00;99.90;;;;;;5054076;28;20083;-70
2022/07/15 10:52:22;;;;;;;5.05;1.00;;;17.50;99.90;;;;;;5053924;28;20061;-70
2022/07/15 10:54:49;;;;;;;7.32;1.20;;;17.30;99.90;;;;;;5053855;28;20025;-70
2022/07/15 10:57:17;;;;;;;4.53;0.98;;;17.00;99.90;;;;;;5053688;28;20520;-69
2022/07/15 10:59:52;;;;;;;9.80;1.48;;;16.70;99.90;;;;;;5053680;28;20406;-70
2022/07/15 11:02:20;;;;;;;6.15;1.42;;;16.70;99.90;;;;;;5053664;28;20385;-70
2022/07/15 11:04:46;;;;;;;8.68;1.65;;;17.00;99.90;;;;;;5053658;28;20490;-70
2022/07/15 11:07:19;;;;;;;11.27;1.27;;;17.60;99.90;;;;;;5053482;28;20050;-70
2022/07/15 11:09:57;;;;;;;5.95;1.00;;;17.60;99.90;;;;;;5053592;28;20420;-70
2022/07/15 11:12:31;;;;;;;10.55;1.20;;;17.30;99.90;;;;;;5054005;28;20064;-70
2022/07/15 11:15:01;;;;;;;9.18;2.13;;;17.10;99.90;;;;;;5054040;28;20032;-70
2022/07/15 11:17:27;;;;;;;16.23;2.00;;;17.50;99.90;;;;;;5053492;28;20021;-70
2022/07/15 11:19:55;;;;;;;6.22;1.10;;;17.90;99.90;;;;;;5053615;28;20388;-70
2022/07/15 11:22:22;;;;;;;11.10;1.50;;;18.00;99.90;;;;;;5053357;28;20021;-70
2022/07/15 11:24:48;;;;;;;13.30;1.25;;;18.20;99.90;;;;;;5053691;28;20416;-70
2022/07/15 11:27:13;;;;;;;6.43;1.77;;;18.20;99.90;;;;;;5053384;28;20043;-70
2022/07/15 11:29:43;;;;;;;10.90;1.42;;;18.30;99.90;;;;;;5055376;28;20041;-70
2022/07/15 11:32:08;;;;;;;6.07;0.90;;;18.70;99.90;;;;;;5057844;28;20013;-70
2022/07/15 11:34:43;;;;;;;4.43;0.70;;;18.70;99.90;;;;;;5057601;28;20032;-70
2022/07/15 11:37:10;;;;;;;6.47;1.23;;;18.60;99.90;;;;;;5057476;28;20420;-70
2022/07/15 11:39:37;;;;;;;7.78;1.05;;;18.70;99.90;;;;;;5057475;28;20021;-70
2022/07/15 11:44:48;;;;;;;6.85;0.98;;;18.90;99.90;;;;;;5057354;28;20471;-70
2022/07/15 11:47:14;;;;;;;7.90;1.15;;;19.20;99.90;;;;;;5057383;28;20025;-70
2022/07/15 11:49:40;;;;;;;6.18;1.45;;;19.10;99.90;;;;;;5057421;28;20021;-70
2022/07/15 11:52:07;;;;;;;4.00;0.90;;;18.90;99.90;;;;;;5057268;28;20101;-70
2022/07/15 11:54:40;;;;;;;2.30;0.85;;;18.60;99.90;;;;;;5057329;28;20032;-70
2022/07/15 11:57:09;;;;;;;5.18;1.52;;;18.80;99.90;;;;;;5037481;28;20029;-70
2022/07/15 11:59:35;;;;;;;8.07;1.27;;;19.10;99.90;;;;;;5037397;28;20025;-70
2022/07/15 12:02:04;;;;;;;8.45;1.52;;;19.20;99.90;;;;;;5019399;28;20028;-70
2022/07/15 12:04:30;;;;;;;6.00;0.98;;;19.20;99.90;;;;;;5037498;28;20359;-70
2022/07/15 12:06:56;;;;;;;5.78;1.00;;;19.20;99.90;;;;;;5036819;28;20083;-70
2022/07/15 12:09:22;;;;;;;7.85;1.15;;;18.80;99.90;;;;;;5037277;28;20073;-70
2022/07/15 12:11:48;;;;;;;5.45;0.73;;;18.50;99.90;;;;;;5045294;28;20503;-70
2022/07/15 12:14:20;;;;;;;4.18;0.65;;;18.10;99.90;;;;;;5056950;28;20542;-70
2022/07/15 12:16:52;;;;;;;4.32;1.05;;;18.00;99.90;;;;;;5056812;28;20025;-70
2022/07/15 12:19:24;;;;;;;9.10;0.68;;;18.40;99.90;;;;;;5056714;28;20039;-70
2022/07/15 12:21:54;;;;;;;5.40;1.33;;;19.40;99.90;;;;;;5038728;28;20025;-71
2022/07/15 12:24:25;;;;;;;3.13;0.65;;;20.20;99.90;;;;;;5056567;28;20025;-70
2022/07/15 12:26:52;;;;;;;4.95;0.80;;;20.50;99.90;;;;;;5056610;28;20029;-71
2022/07/15 12:29:20;;;;;;;3.92;0.73;;;20.90;99.90;;;;;;5057659;28;20342;-71
2022/07/15 12:31:53;;;;;;;4.30;1.05;;;20.60;99.90;;;;;;5056621;28;20413;-71
2022/07/15 12:34:19;;;;;;;5.80;1.35;;;20.10;99.90;;;;;;5056614;28;20075;-72
2022/07/15 12:36:58;;;;;;;6.53;1.45;;;19.60;99.90;;;;;;5056527;28;20095;-72
2022/07/15 12:39:25;;;;;;;4.65;1.13;;;19.60;99.90;;;;;;5038516;28;20033;-71
2022/07/15 12:42:03;;;;;;;7.75;0.98;;;20.30;99.90;;;;;;5055695;28;20029;-71
2022/07/15 12:44:30;;;;;;;4.68;1.45;;;20.80;99.90;;;;;;5056586;28;20021;-71
2022/07/15 12:46:59;;;;;;;5.25;0.93;;;21.30;99.90;;;;;;5056127;28;20469;-72
2022/07/15 12:49:49;;;;;;;2.70;0.80;;;22.00;99.90;;;;;;5056226;28;20385;-72
2022/07/15 12:52:35;;;;;;;6.07;0.80;;;22.20;99.90;;;;;;5056268;28;20021;-72
2022/07/15 12:55:19;;;;;;;3.90;0.95;;;21.70;99.90;;;;;;5056435;28;20487;-71
2022/07/15 12:57:45;;;;;;;;;;;21.30;99.90;;;;;;5056478;28;20056;-72